Time;durP1;ratioP1;P1;durP2;ratioP2;P2;SDS_P1;SDS_P2;PMS_P1;PMS_P2;Temp;Humidity;BMP_temperature;BMP_pressure;BME280_temperature;BME280_humidity;BME280_pressure;Samples;Min_cycle;Max_cycle;Signal;HPM_P1;HPM_P2
2022/08/24 00:00:17;;;;;;;;;;;17.30;99.90;;;;;;5087025;28;19944;-82
2022/08/24 00:02:44;;;;;;;;;;;17.20;99.90;;;;;;5083264;28;19927;-81
2022/08/24 00:05:11;;;;;;;;;;;17.20;99.90;;;;;;5066903;28;19928;-83
2022/08/24 00:07:38;;;;;;;;;;;17.20;99.90;;;;;;5066578;28;19997;-83
2022/08/24 00:10:09;;;;;;;;;;;17.20;99.90;;;;;;5067109;28;19928;-83
2022/08/24 00:12:36;;;;;;;;;;;17.10;99.90;;;;;;5066835;28;19927;-83
2022/08/24 00:18:05;;;;;;;;;;;17.10;99.90;;;;;;5066945;28;19917;-84
2022/08/24 00:20:32;;;;;;;;;;;17.10;99.90;;;;;;5066363;28;19921;-83
2022/08/24 00:22:59;;;;;;;;;;;17.00;99.90;;;;;;5071262;28;19981;-84
2022/08/24 00:25:27;;;;;;;;;;;16.90;99.90;;;;;;5086487;28;19921;-84
2022/08/24 00:27:54;;;;;;;;;;;16.90;99.90;;;;;;5086504;28;20219;-83
2022/08/24 00:30:21;;;;;;;;;;;16.90;99.90;;;;;;5088539;28;19921;-84
2022/08/24 00:32:48;;;;;;;;;;;16.90;99.90;;;;;;5089047;28;20223;-85
2022/08/24 00:35:17;;;;;;;;;;;16.90;99.90;;;;;;5088356;28;19927;-85
2022/08/24 00:37:44;;;;;;;;;;;16.80;99.90;;;;;;5088358;28;19920;-84
2022/08/24 00:40:13;;;;;;;;;;;16.80;99.90;;;;;;5088289;28;19928;-84
2022/08/24 00:42:42;;;;;;;;;;;16.80;99.90;;;;;;5087636;28;19921;-85
2022/08/24 00:45:10;;;;;;;;;;;16.80;99.90;;;;;;5087839;28;19958;-84
2022/08/24 00:47:39;;;;;;;;;;;16.80;99.90;;;;;;5088046;28;19920;-85
2022/08/24 00:50:08;;;;;;;;;;;16.70;99.90;;;;;;5088583;28;19989;-85
2022/08/24 00:52:36;;;;;;;;;;;16.70;99.90;;;;;;5087549;28;19920;-83
2022/08/24 00:55:07;;;;;;;;;;;16.70;99.90;;;;;;5088092;28;19950;-84
2022/08/24 00:57:36;;;;;;;;;;;16.70;99.90;;;;;;5088415;28;19920;-85
2022/08/24 01:00:06;;;;;;;;;;;16.60;99.90;;;;;;5087287;28;20228;-85
2022/08/24 01:02:34;;;;;;;;;;;16.60;99.90;;;;;;5087018;28;19927;-86
2022/08/24 01:05:01;;;;;;;;;;;16.60;99.90;;;;;;5070404;28;20198;-85
2022/08/24 01:07:29;;;;;;;;;;;16.50;99.90;;;;;;5060123;28;19989;-85
2022/08/24 01:09:57;;;;;;;;;;;16.50;99.90;;;;;;5068480;28;19948;-85
2022/08/24 01:12:24;;;;;;;;;;;16.40;99.90;;;;;;5068351;28;19921;-84
2022/08/24 01:14:51;;;;;;;;;;;16.40;99.90;;;;;;5088136;28;19927;-85
2022/08/24 01:20:05;;;;;;;;;;;16.30;99.90;;;;;;5068324;28;20000;-83
2022/08/24 01:22:37;;;;;;;;;;;16.30;99.90;;;;;;5068138;28;19958;-82
2022/08/24 01:25:06;;;;;;;;;;;16.20;99.90;;;;;;5058399;28;19980;-85
2022/08/24 01:27:34;;;;;;;;;;;16.20;99.90;;;;;;5048010;28;20259;-84
2022/08/24 01:30:03;;;;;;;;;;;16.10;99.90;;;;;;5048068;28;19945;-83
2022/08/24 01:32:29;;;;;;;;;;;16.10;99.90;;;;;;5048520;28;19972;-82
2022/08/24 01:34:57;;;;;;;;;;;16.10;99.90;;;;;;5065965;28;20168;-83
2022/08/24 01:37:24;;;;;;;;;;;16.00;99.90;;;;;;5067191;28;20227;-83
2022/08/24 01:39:53;;;;;;;;;;;16.00;99.90;;;;;;5067825;28;19928;-84
2022/08/24 01:42:21;;;;;;;;;;;16.00;99.90;;;;;;5067822;28;19920;-83
2022/08/24 01:44:48;;;;;;;;;;;16.00;99.90;;;;;;5084787;28;19920;-82
2022/08/24 01:47:15;;;;;;;;;;;15.90;99.90;;;;;;5084920;28;19928;-83
2022/08/24 01:49:43;;;;;;;;;;;15.90;99.90;;;;;;5087254;28;19927;-84
2022/08/24 01:52:12;;;;;;;;;;;15.90;99.90;;;;;;5080314;28;19928;-83
2022/08/24 01:54:39;;;;;;;;;;;15.80;99.90;;;;;;5066354;28;19920;-84
2022/08/24 01:57:14;;;;;;;;;;;15.80;99.90;;;;;;5065280;28;20116;-83
2022/08/24 01:59:44;;;;;;;;;;;15.70;99.90;;;;;;5065182;28;19955;-83
2022/08/24 02:02:13;;;;;;;;;;;15.70;99.90;;;;;;5064190;28;20188;-84
2022/08/24 02:04:40;;;;;;;;;;;15.70;99.90;;;;;;5046774;28;19921;-83
2022/08/24 02:07:07;;;;;;;;;;;15.70;99.90;;;;;;5046999;28;20175;-84
2022/08/24 02:09:34;;;;;;;;;;;15.70;99.90;;;;;;5051330;28;19988;-83
2022/08/24 02:12:00;;;;;;;;;;;15.70;99.90;;;;;;5059748;28;19921;-84
2022/08/24 02:14:28;;;;;;;;;;;15.70;99.90;;;;;;5065933;28;19921;-83
2022/08/24 02:16:57;;;;;;;;;;;15.70;99.90;;;;;;5066323;28;19921;-85
2022/08/24 02:19:26;;;;;;;;;;;15.70;99.90;;;;;;5066248;28;20238;-86
2022/08/24 02:21:52;;;;;;;;;;;15.60;99.90;;;;;;5071013;28;19920;-85
2022/08/24 02:24:19;;;;;;;;;;;15.60;99.90;;;;;;5087142;28;19940;-85
2022/08/24 02:26:46;;;;;;;;;;;15.60;99.90;;;;;;5089211;28;19947;-85
2022/08/24 02:29:13;;;;;;;;;;;15.50;99.90;;;;;;5086884;28;19947;-85
2022/08/24 02:31:39;;;;;;;;;;;15.50;99.90;;;;;;5085535;28;19944;-84
2022/08/24 02:34:07;;;;;;;;;;;15.50;99.90;;;;;;5066072;28;19921;-85
2022/08/24 02:36:34;;;;;;;;;;;15.50;99.90;;;;;;5065937;28;19959;-85
2022/08/24 02:39:01;;;;;;;;;;;15.40;99.90;;;;;;5066275;28;19944;-84
2022/08/24 02:41:28;;;;;;;;;;;15.40;99.90;;;;;;5065940;28;19943;-84
2022/08/24 02:43:55;;;;;;;;;;;15.40;99.90;;;;;;5069895;28;19952;-86
2022/08/24 02:46:23;;;;;;;;;;;15.40;99.90;;;;;;5065326;28;19979;-85
2022/08/24 02:48:50;;;;;;;;;;;15.30;99.90;;;;;;5065831;28;19920;-84
2022/08/24 02:51:22;;;;;;;;;;;15.30;99.90;;;;;;5065589;28;20287;-84
2022/08/24 02:53:49;;;;;;;;;;;15.20;99.90;;;;;;5083726;28;20143;-84
2022/08/24 02:56:16;;;;;;;;;;;15.20;99.90;;;;;;5085013;28;19925;-84
2022/08/24 02:58:43;;;;;;;;;;;15.10;99.90;;;;;;5085234;28;19920;-83
2022/08/24 03:01:10;;;;;;;;;;;15.20;99.90;;;;;;5085529;28;19947;-84
2022/08/24 03:03:37;;;;;;;;;;;15.10;99.90;;;;;;5068000;28;19961;-85
2022/08/24 03:06:04;;;;;;;;;;;15.10;99.90;;;;;;5064775;28;19928;-84
2022/08/24 03:08:33;;;;;;;;;;;15.10;99.90;;;;;;5065124;28;19941;-84
2022/08/24 03:11:00;;;;;;;;;;;15.10;99.90;;;;;;5068435;28;19921;-84
2022/08/24 03:13:26;;;;;;;;;;;15.10;99.90;;;;;;5086131;28;19992;-85
2022/08/24 03:15:54;;;;;;;;;;;15.00;99.90;;;;;;5085006;28;19988;-85
2022/08/24 03:18:20;;;;;;;;;;;15.00;99.90;;;;;;5071396;28;19928;-84
2022/08/24 03:20:48;;;;;;;;;;;15.00;99.90;;;;;;5072004;28;19921;-84
2022/08/24 03:23:15;;;;;;;;;;;14.90;99.90;;;;;;5070769;28;19945;-84
2022/08/24 03:25:43;;;;;;;;;;;14.90;99.90;;;;;;5071230;28;20345;-84
2022/08/24 03:28:10;;;;;;;;;;;14.90;99.90;;;;;;5071151;28;20267;-84
2022/08/24 03:30:37;;;;;;;;;;;14.90;99.90;;;;;;5071616;28;19920;-84
2022/08/24 03:33:04;;;;;;;;;;;14.90;99.90;;;;;;5070510;28;19940;-84
2022/08/24 03:35:32;;;;;;;;;;;14.80;99.90;;;;;;5070953;28;19928;-84
2022/08/24 03:37:59;;;;;;;;;;;14.80;99.90;;;;;;5071074;28;19925;-84
2022/08/24 03:40:26;;;;;;;;;;;14.80;99.90;;;;;;5071086;28;20404;-83
2022/08/24 03:42:55;;;;;;;;;;;14.80;99.90;;;;;;5070264;28;20255;-84
2022/08/24 03:45:22;;;;;;;;;;;14.70;99.90;;;;;;5070996;28;19929;-85
2022/08/24 03:47:49;;;;;;;;;;;14.70;99.90;;;;;;5070659;28;19984;-84
2022/08/24 03:50:15;;;;;;;;;;;14.70;99.90;;;;;;5070924;28;19932;-83
2022/08/24 03:52:42;;;;;;;;;;;14.60;99.90;;;;;;5070279;28;19955;-84
2022/08/24 03:55:10;;;;;;;;;;;14.60;99.90;;;;;;5070342;28;19944;-83
2022/08/24 03:57:36;;;;;;;;;;;14.60;99.90;;;;;;5089710;22;19946;-70
2022/08/24 04:00:06;;;;;;;;;;;14.60;99.90;;;;;;5103495;28;19987;-70
2022/08/24 04:02:33;;;;;;;;;;;14.60;99.90;;;;;;5108939;28;19979;-70
2022/08/24 04:05:00;;;;;;;;;;;14.60;99.90;;;;;;5109112;28;19920;-70
2022/08/24 04:07:26;;;;;;;;;;;14.60;99.90;;;;;;5106139;28;20170;-70
2022/08/24 04:12:21;;;;;;;;;;;14.60;99.90;;;;;;5047243;28;19921;-72
2022/08/24 04:14:50;;;;;;;;;;;14.50;99.90;;;;;;5048766;28;20113;-72
2022/08/24 04:17:18;;;;;;;;;;;14.50;99.90;;;;;;5048523;28;19984;-72
2022/08/24 04:19:56;;;;;;;;;;;14.40;99.90;;;;;;5049072;28;20183;-72
2022/08/24 04:22:22;;;;;;;;;;;14.50;99.90;;;;;;5026439;28;19921;-71
2022/08/24 04:24:49;;;;;;;;;;;14.40;99.90;;;;;;5025817;28;20275;-71
2022/08/24 04:27:16;;;;;;;;;;;14.40;99.90;;;;;;5026059;28;20184;-72
2022/08/24 04:29:43;;;;;;;;;;;14.40;99.90;;;;;;5026029;28;19957;-72
2022/08/24 04:32:09;;;;;;;;;;;14.40;99.90;;;;;;5025693;28;19929;-73
2022/08/24 04:34:38;;;;;;;;;;;14.40;99.90;;;;;;5024347;28;19981;-73
2022/08/24 04:37:05;;;;;;;;;;;14.40;99.90;;;;;;5025820;28;19921;-73
2022/08/24 04:39:33;;;;;;;;;;;14.40;99.90;;;;;;5025830;28;19921;-73
2022/08/24 04:41:59;;;;;;;;;;;14.40;99.90;;;;;;5025712;28;19984;-73
2022/08/24 04:44:26;;;;;;;;;;;14.30;99.90;;;;;;5025350;28;19984;-73
2022/08/24 04:46:53;;;;;;;;;;;14.30;99.90;;;;;;5025387;28;19957;-73
2022/08/24 04:49:19;;;;;;;;;;;14.30;99.90;;;;;;5025258;28;19922;-73
2022/08/24 04:51:47;;;;;;;;;;;14.20;99.90;;;;;;5025522;28;19927;-73
2022/08/24 04:54:14;;;;;;;;;;;14.20;99.90;;;;;;5022527;28;19964;-73
2022/08/24 04:56:41;;;;;;;;;;;14.20;99.90;;;;;;5025127;28;19968;-73
2022/08/24 04:59:08;;;;;;;;;;;14.20;99.90;;;;;;5025159;28;20261;-73
2022/08/24 05:01:34;;;;;;;;;;;14.20;99.90;;;;;;5025218;28;19989;-73
2022/08/24 05:04:02;;;;;;;;;;;14.20;99.90;;;;;;5024756;28;20168;-73
2022/08/24 05:06:30;;;;;;;;;;;14.20;99.90;;;;;;5025278;28;20207;-73
2022/08/24 05:08:59;;;;;;;;;;;14.30;99.90;;;;;;5024567;28;20267;-73
2022/08/24 05:11:26;;;;;;;;;;;14.30;99.90;;;;;;5024886;28;19968;-73
2022/08/24 05:13:53;;;;;;;;;;;14.30;99.90;;;;;;5024540;28;19929;-73
2022/08/24 05:16:20;;;;;;;;;;;14.30;99.90;;;;;;5024764;28;19922;-73
2022/08/24 05:18:48;;;;;;;;;;;14.40;99.90;;;;;;5025274;28;19928;-73
2022/08/24 05:21:15;;;;;;;;;;;14.40;99.90;;;;;;5024881;28;19937;-73
2022/08/24 05:23:42;;;;;;;;;;;14.50;99.90;;;;;;5024503;28;19960;-72
2022/08/24 05:26:11;;;;;;;;;;;14.50;99.90;;;;;;5022914;28;19992;-72
2022/08/24 05:28:38;;;;;;;;;;;14.60;99.90;;;;;;5015626;28;19961;-72
2022/08/24 05:31:08;;;;;;;;;;;14.60;99.90;;;;;;5014030;28;19993;-72
2022/08/24 05:33:35;;;;;;;;;;;14.70;99.90;;;;;;5012646;28;19964;-72
2022/08/24 05:36:02;;;;;;;;;;;14.70;99.90;;;;;;5020285;28;19964;-72
2022/08/24 05:38:28;;;;;;;;;;;14.80;99.90;;;;;;5017073;28;19985;-72
2022/08/24 05:40:55;;;;;;;;;;;14.80;99.90;;;;;;5013451;28;19922;-72
2022/08/24 05:43:23;;;;;;;;;;;14.90;99.90;;;;;;5013039;28;19957;-72
2022/08/24 05:45:50;;;;;;;;;;;15.00;99.90;;;;;;5013429;28;19981;-72
2022/08/24 05:48:16;;;;;;;;;;;15.00;99.90;;;;;;5012287;28;20001;-72
2022/08/24 05:50:43;;;;;;;;;;;15.10;99.90;;;;;;5014936;28;19928;-72
2022/08/24 05:53:10;;;;;;;;;;;15.10;99.90;;;;;;5014056;28;19989;-72
2022/08/24 05:55:37;;;;;;;;;;;15.30;99.90;;;;;;5018375;28;19953;-72
2022/08/24 05:58:04;;;;;;;;;;;15.30;99.90;;;;;;5015707;28;19929;-72
2022/08/24 06:00:32;;;;;;;;;;;15.30;99.90;;;;;;5014608;28;19975;-72
2022/08/24 06:02:59;;;;;;;;;;;15.40;99.90;;;;;;5012750;28;19988;-72
2022/08/24 06:05:25;;;;;;;;;;;15.50;99.90;;;;;;5017695;28;20102;-72
2022/08/24 06:07:52;;;;;;;;;;;15.60;99.90;;;;;;5013470;28;19992;-72
2022/08/24 06:10:19;;;;;;;;;;;15.70;99.90;;;;;;5006697;28;19926;-72
2022/08/24 06:12:47;;;;;;;;;;;15.80;99.90;;;;;;5004142;28;19992;-72
2022/08/24 06:15:14;;;;;;;;;;;15.80;99.90;;;;;;5016707;28;19944;-72
2022/08/24 06:17:42;;;;;;;;;;;15.90;99.90;;;;;;5024232;28;19976;-72
2022/08/24 06:20:09;;;;;;;;;;;16.00;99.90;;;;;;5013834;28;19960;-72
2022/08/24 06:22:36;;;;;;;;;;;16.10;99.90;;;;;;5004056;28;20028;-72
2022/08/24 06:27:47;;;;;;;;;;;16.20;99.90;;;;;;5023697;28;20273;-72
2022/08/24 06:30:14;;;;;;;;;;;16.30;99.90;;;;;;5023815;28;19971;-72
2022/08/24 06:32:42;;;;;;;;;;;16.40;99.90;;;;;;5023316;28;19959;-72
2022/08/24 06:35:09;;;;;;;;;;;16.50;99.90;;;;;;5023723;28;19921;-72
2022/08/24 06:37:36;;;;;;;;;;;16.70;99.90;;;;;;5023110;28;19988;-72
2022/08/24 06:40:03;;;;;;;;;;;16.80;99.90;;;;;;5023565;28;19960;-72
2022/08/24 06:42:30;;;;;;;;;;;16.90;99.90;;;;;;5023313;28;19953;-72
2022/08/24 06:44:57;;;;;;;;;;;17.00;99.90;;;;;;5022978;28;19932;-72
2022/08/24 06:47:23;;;;;;;;;;;17.10;99.90;;;;;;5019900;28;19948;-72
2022/08/24 06:49:51;;;;;;;;;;;17.20;99.90;;;;;;5010842;28;20005;-72
2022/08/24 06:52:18;;;;;;;;;;;17.30;99.90;;;;;;5003708;28;20292;-72
2022/08/24 06:54:44;;;;;;;;;;;17.40;99.90;;;;;;5014767;28;19922;-72
2022/08/24 06:57:13;;;;;;;;;;;17.50;99.90;;;;;;5023451;28;19948;-72
2022/08/24 06:59:41;;;;;;;;;;;17.50;99.90;;;;;;5023156;28;19992;-72
2022/08/24 07:02:09;;;;;;;;;;;17.50;99.90;;;;;;5023361;28;19921;-72
2022/08/24 07:04:36;;;;;;;;;;;17.60;99.90;;;;;;5022742;28;20156;-72
2022/08/24 07:07:04;;;;;;;;;;;17.80;99.90;;;;;;5022428;28;19922;-72
2022/08/24 07:09:31;;;;;;;;;;;17.90;99.90;;;;;;5023070;28;19981;-71
2022/08/24 07:11:57;;;;;;;;;;;18.00;99.90;;;;;;5018910;28;20173;-72
2022/08/24 07:14:24;;;;;;;;;;;18.10;99.90;;;;;;5022531;28;20213;-71
2022/08/24 07:16:50;;;;;;;;;;;18.30;99.90;;;;;;5018565;28;19921;-71
2022/08/24 07:19:17;;;;;;;;;;;18.40;99.90;;;;;;5016825;28;19965;-71
2022/08/24 07:21:44;;;;;;;;;;;18.60;99.90;;;;;;5015307;28;19984;-70
2022/08/24 07:24:12;;;;;;;;;;;18.60;99.90;;;;;;5013853;28;19925;-71
2022/08/24 07:26:39;;;;;;;;;;;18.70;99.90;;;;;;5012350;28;19960;-71
2022/08/24 07:29:09;;;;;;;;;;;18.70;99.90;;;;;;5012537;28;19961;-71
2022/08/24 07:31:37;;;;;;;;;;;18.70;99.90;;;;;;5020414;28;19984;-72
2022/08/24 07:34:04;;;;;;;;;;;18.90;99.90;;;;;;5015285;28;19972;-72
2022/08/24 07:36:31;;;;;;;;;;;19.00;99.90;;;;;;5013794;28;19922;-72
2022/08/24 07:38:57;;;;;;;;;;;19.10;99.90;;;;;;5011730;28;19929;-71
2022/08/24 07:41:26;;;;;;;;;;;19.10;99.90;;;;;;5013268;28;19954;-72
2022/08/24 07:43:53;;;;;;;;;;;19.30;99.90;;;;;;5011520;28;20176;-72
2022/08/24 07:46:19;;;;;;;;;;;19.40;99.90;;;;;;5012906;28;19952;-72
2022/08/24 07:48:46;;;;;;;;;;;19.50;99.90;;;;;;5011003;28;20150;-72
2022/08/24 07:51:14;;;;;;;;;;;19.60;99.90;;;;;;5015572;28;20244;-72
2022/08/24 07:53:40;;;;;;;;;;;19.60;99.90;;;;;;5011902;28;19996;-72
2022/08/24 07:56:07;;;;;;;;;;;19.80;99.90;;;;;;5013412;28;19929;-72
2022/08/24 07:58:36;;;;;;;;;;;20.00;99.90;;;;;;5017291;28;19928;-72
2022/08/24 08:01:03;;;;;;;;;;;20.00;99.90;;;;;;5016743;28;20052;-73
2022/08/24 08:03:32;;;;;;;;;;;20.20;99.90;;;;;;5015029;28;20279;-72
2022/08/24 08:06:00;;;;;;;;;;;20.30;99.90;;;;;;5016009;28;20209;-72
2022/08/24 08:08:27;;;;;;;;;;;20.40;99.90;;;;;;5019991;28;20209;-72
2022/08/24 08:10:54;;;;;;;;;;;20.50;99.90;;;;;;5014832;28;19922;-73
2022/08/24 08:13:20;;;;;;;;;;;20.40;99.90;;;;;;5024183;28;19988;-72
2022/08/24 08:15:49;;;;;;;;;;;20.50;99.90;;;;;;5019927;28;19967;-73
2022/08/24 08:18:16;;;;;;;;;;;20.50;99.90;;;;;;5022236;28;19926;-73
2022/08/24 08:20:43;;;;;;;;;;;20.60;99.90;;;;;;5011425;28;20142;-72
2022/08/24 08:25:56;;;;;;;;;;;20.90;99.90;;;;;;5016048;28;19940;-73
2022/08/24 08:28:23;;;;;;;;;;;20.90;99.90;;;;;;5019125;28;19984;-73
2022/08/24 08:30:52;;;;;;;;;;;21.00;99.90;;;;;;5018854;28;20208;-73
2022/08/24 08:33:19;;;;;;;;;;;21.00;99.90;;;;;;5018438;28;19956;-73
2022/08/24 08:35:45;;;;;;;;;;;21.00;99.90;;;;;;5018370;28;19979;-73
2022/08/24 08:38:12;;;;;;;;;;;21.20;99.90;;;;;;5018154;28;19956;-72
2022/08/24 08:40:45;;;;;;;;;;;21.30;99.90;;;;;;5019308;28;19961;-73
2022/08/24 08:43:20;;;;;;;;;;;21.40;99.90;;;;;;5017525;28;19984;-73
2022/08/24 08:45:57;;;;;;;;;;;21.40;99.90;;;;;;5017941;28;19985;-72
2022/08/24 08:48:46;;;;;;;;;;;21.60;99.90;;;;;;5016457;28;19929;-72
2022/08/24 08:51:26;;;;;;;;;;;21.60;99.90;;;;;;5008102;28;19922;-72
2022/08/24 08:54:05;;;;;;;;;;;21.80;99.90;;;;;;5018620;28;20220;-72
2022/08/24 08:56:34;;;;;;;;;;;21.90;99.90;;;;;;5016128;28;19952;-72
2022/08/24 08:59:06;;;;;;;;;;;22.00;99.90;;;;;;5016354;28;20157;-72
2022/08/24 09:01:38;;;;;;;;;;;22.00;99.90;;;;;;5017914;28;19953;-72
2022/08/24 09:04:13;;;;;;;;;;;22.10;99.90;;;;;;5019769;28;19922;-72
2022/08/24 09:06:50;;;;;;;;;;;22.00;99.90;;;;;;5025459;28;20094;-72
2022/08/24 09:09:37;;;;;;;;;;;22.10;99.90;;;;;;5020835;28;20178;-70
2022/08/24 09:12:11;;;;;;;;;;;22.20;99.90;;;;;;5016155;28;19967;-72
2022/08/24 09:15:02;;;;;;;;;;;22.30;99.90;;;;;;5015958;28;19980;-72
2022/08/24 09:17:36;;;;;;;;;;;22.40;99.90;;;;;;5020227;28;19929;-72
2022/08/24 09:20:23;;;;;;;;;;;22.50;99.90;;;;;;5017164;28;20835;-72
2022/08/24 09:22:59;;;;;;;;;;;22.50;99.90;;;;;;5005382;28;19922;-73
2022/08/24 09:25:28;;;;;;;;;;;22.60;99.90;;;;;;5010492;28;20213;-72
2022/08/24 09:28:12;;;;;;;;;;;22.70;99.90;;;;;;5015850;28;20008;-72
2022/08/24 09:30:52;;;;;;;;;;;22.70;99.90;;;;;;5015584;28;19929;-72
2022/08/24 09:33:21;;;;;;;;;;;22.80;99.90;;;;;;5016270;28;20125;-71
2022/08/24 09:36:00;;;;;;;;;;;22.90;99.90;;;;;;5015797;28;19960;-72
2022/08/24 09:38:45;;;;;;;;;;;23.00;99.90;;;;;;5017981;28;19953;-71
2022/08/24 09:41:22;;;;;;;;;;;23.10;99.90;;;;;;5015207;28;19926;-72
2022/08/24 09:44:08;;;;;;;;;;;23.20;99.90;;;;;;5013369;28;19953;-71
2022/08/24 09:46:45;;;;;;;;;;;23.30;99.90;;;;;;5014272;28;19922;-71
2022/08/24 09:49:21;;;;;;;;;;;23.40;99.90;;;;;;5012624;28;20201;-71
2022/08/24 09:52:08;;;;;;;;;;;23.50;99.90;;;;;;5024120;28;19956;-71
2022/08/24 09:54:46;;;;;;;;;;;23.60;99.90;;;;;;5023824;28;19928;-72
2022/08/24 09:57:27;;;;;;;;;;;23.70;99.90;;;;;;5024554;28;19956;-71
2022/08/24 10:00:03;;;;;;;;;;;23.90;99.90;;;;;;5023687;28;19927;-72
2022/08/24 10:02:39;;;;;;;;;;;24.00;99.90;;;;;;5024123;28;19921;-71
2022/08/24 10:05:11;;;;;;;;;;;24.10;99.90;;;;;;5023973;28;19922;-71
2022/08/24 10:07:44;;;;;;;;;;;24.30;99.90;;;;;;5024144;28;19989;-71
2022/08/24 10:10:20;;;;;;;;;;;24.40;99.90;;;;;;5024069;28;20021;-70
2022/08/24 10:12:54;;;;;;;;;;;24.50;99.90;;;;;;5023840;28;19928;-71
2022/08/24 10:15:22;;;;;;;;;;;24.60;99.90;;;;;;5015870;28;20175;-71
2022/08/24 10:17:55;;;;;;;;;;;24.80;99.90;;;;;;5015650;28;19925;-69
2022/08/24 10:20:23;;;;;;;;;;;24.90;99.90;;;;;;5007416;28;19957;-68
2022/08/24 10:23:03;;;;;;;;;;;25.00;99.90;;;;;;5020502;28;20212;-68
2022/08/24 10:25:35;;;;;;;;;;;25.10;99.90;;;;;;5004244;28;20236;-69
2022/08/24 10:28:24;;;;;;;;;;;25.20;99.90;;;;;;5004020;28;19945;-69
2022/08/24 10:30:55;;;;;;;;;;;25.20;99.90;;;;;;5005273;28;19968;-69
2022/08/24 10:33:25;;;;;;;;;;;25.30;99.90;;;;;;5005609;28;19928;-69
2022/08/24 10:36:07;;;;;;;;;;;25.30;99.90;;;;;;5021923;28;19922;-70
2022/08/24 10:41:47;;;;;;;;;;;25.40;99.90;;;;;;5013077;28;19952;-70
2022/08/24 10:44:20;;;;;;;;;;;25.50;99.90;;;;;;5015227;28;19984;-69
2022/08/24 10:46:53;;;;;;;;;;;25.60;99.90;;;;;;5013146;28;19927;-71
2022/08/24 10:49:45;;;;;;;;;;;25.70;99.90;;;;;;5012180;28;20086;-72
2022/08/24 10:52:27;;;;;;;;;;;25.80;99.90;;;;;;5010733;28;19922;-69
2022/08/24 10:54:54;;;;;;;;;;;26.00;99.90;;;;;;5019780;28;19922;-70
2022/08/24 10:57:27;;;;;;;;;;;26.10;99.90;;;;;;5022561;28;19921;-70
2022/08/24 10:59:58;;;;;;;;;;;26.30;99.90;;;;;;5013995;28;19921;-71
2022/08/24 11:02:29;;;;;;;;;;;26.50;99.90;;;;;;5004433;28;20173;-70
2022/08/24 11:04:57;;;;;;;;;;;26.70;99.90;;;;;;5004247;28;19985;-71
2022/08/24 11:07:24;;;;;;;;;;;26.70;99.90;;;;;;5010762;28;19921;-71
2022/08/24 11:09:52;;;;;;;;;;;26.70;99.90;;;;;;5007076;28;19964;-72
2022/08/24 11:12:26;;;;;;;;;;;26.70;99.90;;;;;;5018523;28;19922;-70
2022/08/24 11:14:54;;;;;;;;;;;26.80;99.90;;;;;;5009439;28;19922;-70
2022/08/24 11:17:21;;;;;;;;;;;27.00;99.90;;;;;;5023348;28;19949;-70
2022/08/24 11:19:49;;;;;;;;;;;27.20;99.90;;;;;;5023644;28;20332;-71
2022/08/24 11:22:26;;;;;;;;;;;27.40;99.90;;;;;;5023223;28;19989;-70
2022/08/24 11:24:54;;;;;;;;;;;27.60;99.90;;;;;;5022041;28;19921;-73
2022/08/24 11:27:29;;;;;;;;;;;27.60;99.90;;;;;;5021387;28;19921;-73
2022/08/24 11:30:09;;;;;;;;;;;27.50;99.90;;;;;;5022545;28;19929;-71
2022/08/24 11:32:41;;;;;;;;;;;27.60;99.90;;;;;;5021163;28;19997;-71
2022/08/24 11:35:25;;;;;;;;;;;27.70;99.90;;;;;;5022137;28;20180;-72
2022/08/24 11:37:53;;;;;;;;;;;27.80;99.90;;;;;;5017153;28;20171;-71
2022/08/24 11:40:21;;;;;;;;;;;27.80;99.90;;;;;;5012700;28;19956;-72
2022/08/24 11:42:58;;;;;;;;;;;27.90;99.90;;;;;;5022827;28;19959;-72
2022/08/24 11:45:30;;;;;;;;;;;27.80;99.90;;;;;;5011136;28;19922;-72
2022/08/24 11:48:02;;;;;;;;;;;27.70;99.90;;;;;;5016043;28;20180;-72
2022/08/24 11:50:32;;;;;;;;;;;27.40;99.90;;;;;;5020397;28;19964;-70
2022/08/24 11:53:08;;;;;;;;;;;27.10;99.90;;;;;;5026448;28;19929;-69
2022/08/24 11:55:38;;;;;;;;;;;26.80;99.90;;;;;;5026913;28;19981;-69
2022/08/24 11:58:11;;;;;;;;;;;26.80;99.90;;;;;;5024119;28;19921;-72
2022/08/24 12:00:45;;;;;;;;;;;26.90;99.90;;;;;;5017350;28;19988;-71
2022/08/24 12:03:20;;;;;;;;;;;26.80;99.90;;;;;;5019925;28;19984;-70
2022/08/24 12:05:49;;;;;;;;;;;26.70;99.90;;;;;;5018291;28;19997;-72
2022/08/24 12:08:21;;;;;;;;;;;26.80;99.90;;;;;;5018200;28;20204;-72
2022/08/24 12:10:50;;;;;;;;;;;26.70;99.90;;;;;;5016800;28;19971;-72
2022/08/24 12:13:27;;;;;;;;;;;26.60;99.90;;;;;;5016647;28;19988;-72
2022/08/24 12:15:59;;;;;;;;;;;26.80;99.90;;;;;;5016756;28;19967;-72
2022/08/24 12:18:29;;;;;;;;;;;27.20;99.90;;;;;;5019279;28;20207;-72
2022/08/24 12:20:56;;;;;;;;;;;27.70;99.90;;;;;;5016053;28;20012;-71
2022/08/24 12:23:26;;;;;;;;;;;27.90;99.90;;;;;;5017065;28;19953;-72
2022/08/24 12:26:01;;;;;;;;;;;28.10;99.90;;;;;;5014598;28;19928;-70
2022/08/24 12:28:32;;;;;;;;;;;28.40;99.90;;;;;;5017159;28;20209;-72
2022/08/24 12:31:02;;;;;;;;;;;28.70;99.90;;;;;;5019701;28;19925;-71
2022/08/24 12:33:32;;;;;;;;;;;29.00;99.90;;;;;;5025609;28;20005;-71
2022/08/24 12:36:01;;;;;;;;;;;28.90;99.90;;;;;;5024922;28;19949;-72
2022/08/24 12:38:29;;;;;;;;;;;28.50;99.90;;;;;;5026059;28;20120;-73
2022/08/24 12:40:58;;;;;;;;;;;28.10;99.90;;;;;;5016255;28;19922;-72
2022/08/24 12:43:27;;;;;;;;;;;28.00;99.90;;;;;;5017391;28;19949;-73
2022/08/24 12:46:00;;;;;;;;;;;28.20;99.90;;;;;;5011206;28;20263;-73
2022/08/24 12:48:29;;;;;;;;;;;28.60;99.90;;;;;;5006435;28;20217;-73
2022/08/24 12:51:02;;;;;;;;;;;29.00;99.90;;;;;;5006353;28;20109;-73
2022/08/24 12:53:44;;;;;;;;;;;29.30;99.90;;;;;;5006326;28;20094;-71
2022/08/24 12:56:25;;;;;;;;;;;29.60;99.90;;;;;;5004332;28;19929;-74
2022/08/24 12:58:56;;;;;;;;;;;29.80;99.90;;;;;;5022334;28;19921;-71
2022/08/24 13:01:25;;;;;;;;;;;29.60;99.90;;;;;;5025813;28;19957;-71
2022/08/24 13:04:03;;;;;;;;;;;29.30;99.90;;;;;;5025393;28;19929;-72
2022/08/24 13:06:37;;;;;;;;;;;29.00;99.90;;;;;;5025545;28;19988;-71
2022/08/24 13:09:06;;;;;;;;;;;28.40;99.90;;;;;;5025835;28;20012;-74
2022/08/24 13:11:34;;;;;;;;;;;28.10;99.90;;;;;;5025188;28;19993;-72
2022/08/24 13:14:14;;;;;;;;;;;28.00;99.90;;;;;;5024676;28;19922;-72
2022/08/24 13:16:47;;;;;;;;;;;27.90;99.90;;;;;;5006104;28;19925;-71
2022/08/24 13:19:16;;;;;;;;;;;27.80;99.90;;;;;;5014162;28;20121;-72
2022/08/24 13:21:51;;;;;;;;;;;27.80;99.90;;;;;;5025026;28;20116;-71
2022/08/24 13:24:49;;;;;;;;;;;28.00;99.90;;;;;;5024935;28;19953;-71
2022/08/24 13:27:49;;;;;;;;;;;28.40;99.90;;;;;;5025075;28;19956;-73
2022/08/24 13:30:20;;;;;;;;;;;28.50;99.90;;;;;;5025274;28;19921;-72
2022/08/24 13:32:55;;;;;;;;;;;28.60;99.90;;;;;;5023962;28;19921;-72
2022/08/24 13:35:40;;;;;;;;;;;28.60;99.90;;;;;;5024935;28;20259;-72
2022/08/24 13:38:25;;;;;;;;;;;28.90;99.90;;;;;;5024979;28;20176;-71
2022/08/24 13:40:55;;;;;;;;;;;29.30;99.90;;;;;;5021310;28;19925;-71
2022/08/24 13:43:27;;;;;;;;;;;29.80;99.90;;;;;;5013075;28;19929;-72
2022/08/24 13:45:56;;;;;;;;;;;30.20;99.90;;;;;;5006392;28;19988;-73
2022/08/24 13:48:32;;;;;;;;;;;30.40;99.90;;;;;;5022253;28;19921;-72
2022/08/24 13:51:07;;;;;;;;;;;30.20;99.90;;;;;;5028808;28;19984;-73
2022/08/24 13:53:46;;;;;;;;;;;29.60;99.90;;;;;;5025452;28;19967;-72
2022/08/24 13:56:24;;;;;;;;;;;29.10;99.90;;;;;;5014253;28;19937;-70
2022/08/24 13:58:55;;;;;;;;;;;28.60;99.90;;;;;;5005135;28;19921;-70
2022/08/24 14:01:28;;;;;;;;;;;28.30;99.90;;;;;;5011010;28;19957;-72
2022/08/24 14:04:06;;;;;;;;;;;28.10;99.90;;;;;;5019887;28;20205;-71
2022/08/24 14:06:36;;;;;;;;;;;27.80;99.90;;;;;;5020477;28;19929;-72
2022/08/24 14:09:14;;;;;;;;;;;27.80;99.90;;;;;;5022666;28;20064;-71
2022/08/24 14:11:47;;;;;;;;;;;28.00;99.90;;;;;;5014230;28;19921;-71
2022/08/24 14:14:18;;;;;;;;;;;28.40;99.90;;;;;;5008910;28;19922;-73
2022/08/24 14:19:56;;;;;;;;;;;29.30;99.90;;;;;;4943743;29;19918;-73
2022/08/24 14:22:29;;;;;;;;;;;29.50;99.90;;;;;;4939153;29;20218;-72
2022/08/24 14:25:04;;;;;;;;;;;29.60;99.90;;;;;;4976370;28;19928;-72
2022/08/24 14:27:36;;;;;;;;;;;29.50;99.90;;;;;;5019480;28;20113;-72
2022/08/24 14:30:22;;;;;;;;;;;29.40;99.90;;;;;;5013238;28;19925;-72
2022/08/24 14:33:04;;;;;;;;;;;29.30;99.90;;;;;;5007558;28;19967;-72
2022/08/24 14:35:35;;;;;;;;;;;29.70;99.90;;;;;;5007863;28;19921;-73
2022/08/24 14:38:07;;;;;;;;;;;30.10;99.90;;;;;;5012997;28;19921;-73
2022/08/24 14:40:37;;;;;;;;;;;30.40;99.90;;;;;;5016335;28;19968;-72
2022/08/24 14:43:15;;;;;;;;;;;30.70;99.90;;;;;;5009525;28;19930;-73
2022/08/24 14:45:51;;;;;;;;;;;31.10;99.90;;;;;;5022932;28;19945;-73
2022/08/24 14:48:22;;;;;;;;;;;31.30;99.90;;;;;;5010880;28;20158;-70
2022/08/24 14:51:00;;;;;;;;;;;31.20;99.90;;;;;;5004132;28;19957;-70
2022/08/24 14:53:34;;;;;;;;;;;31.10;99.90;;;;;;5007402;28;19985;-68